Time;durP1;ratioP1;P1;durP2;ratioP2;P2;SDS_P1;SDS_P2;PMS_P1;PMS_P2;Temp;Humidity;BMP_temperature;BMP_pressure;BME280_temperature;BME280_humidity;BME280_pressure;Samples;Min_cycle;Max_cycle;Signal;HPM_P1;HPM_P2
2023/07/12 00:01:11;;;;;;;3.38;1.20;;;;;;;;;;4998763;28;19917;-63
2023/07/12 00:03:38;;;;;;;2.72;1.08;;;;;;;;;;4996211;28;20038;-63
2023/07/12 00:06:12;;;;;;;3.25;1.23;;;;;;;;;;4997203;28;20044;-64
2023/07/12 00:08:40;;;;;;;3.53;1.33;;;;;;;;;;4994469;28;20048;-62
2023/07/12 00:11:10;;;;;;;4.07;1.20;;;;;;;;;;4999005;28;20096;-63
2023/07/12 00:13:36;;;;;;;3.95;1.35;;;;;;;;;;4997664;28;20038;-63
2023/07/12 00:16:03;;;;;;;3.30;1.55;;;;;;;;;;4997065;28;20427;-64
2023/07/12 00:18:29;;;;;;;7.93;1.60;;;;;;;;;;4995230;28;20041;-64
2023/07/12 00:20:56;;;;;;;5.70;1.60;;;;;;;;;;4990826;28;20553;-62
2023/07/12 00:23:23;;;;;;;3.28;1.50;;;;;;;;;;4997817;28;20046;-63
2023/07/12 00:25:50;;;;;;;3.65;1.92;;;;;;;;;;4997513;28;20056;-62
2023/07/12 00:28:24;;;;;;;3.53;1.60;;;;;;;;;;4997231;28;20057;-62
2023/07/12 00:30:52;;;;;;;4.20;1.77;;;;;;;;;;4995388;28;20048;-62
2023/07/12 00:33:19;;;;;;;3.95;2.03;;;;;;;;;;4996464;28;20966;-62
2023/07/12 00:35:46;;;;;;;4.40;1.90;;;;;;;;;;4997752;28;20985;-63
2023/07/12 00:38:20;;;;;;;6.63;2.05;;;;;;;;;;4998619;28;20132;-60
2023/07/12 00:41:01;;;;;;;4.65;2.10;;;;;;;;;;4995438;28;20526;-60
2023/07/12 00:43:37;;;;;;;4.30;1.98;;;;;;;;;;4996552;28;20442;-64
2023/07/12 00:46:10;;;;;;;4.57;2.20;;;;;;;;;;5014551;28;20056;-64
2023/07/12 00:48:36;;;;;;;6.00;2.20;;;;;;;;;;4995020;28;20065;-63
2023/07/12 00:51:21;;;;;;;4.78;2.28;;;;;;;;;;4999033;28;20041;-64
2023/07/12 00:53:48;;;;;;;4.35;2.35;;;;;;;;;;4995513;28;20053;-65
2023/07/12 00:56:15;;;;;;;5.35;2.35;;;;;;;;;;4996700;28;20486;-63
2023/07/12 00:58:46;;;;;;;4.97;2.47;;;;;;;;;;5011221;28;20077;-64
2023/07/12 01:01:14;;;;;;;6.70;2.95;;;;;;;;;;4997632;28;20064;-63
2023/07/12 01:03:42;;;;;;;7.20;2.65;;;;;;;;;;5003236;28;20496;-65
2023/07/12 01:06:10;;;;;;;4.88;2.60;;;;;;;;;;5002664;28;20030;-64
2023/07/12 01:08:41;;;;;;;5.38;2.65;;;;;;;;;;4998484;28;20041;-64
2023/07/12 01:11:08;;;;;;;5.80;2.50;;;;;;;;;;4979989;28;20497;-65
2023/07/12 01:13:35;;;;;;;5.43;2.70;;;;;;;;;;4997743;28;20082;-64
2023/07/12 01:16:03;;;;;;;5.85;2.80;;;;;;;;;;4998630;28;20048;-64
2023/07/12 01:18:30;;;;;;;4.90;2.63;;;;;;;;;;4996693;28;20122;-63
2023/07/12 01:21:09;;;;;;;5.07;2.58;;;;;;;;;;4994610;28;20057;-64
2023/07/12 01:23:36;;;;;;;5.43;2.60;;;;;;;;;;4998772;28;20053;-64
2023/07/12 01:26:14;;;;;;;6.57;2.80;;;;;;;;;;4998184;28;20542;-63
2023/07/12 01:28:41;;;;;;;6.40;2.63;;;;;;;;;;4998513;28;20578;-65
2023/07/12 01:31:08;;;;;;;4.75;2.63;;;;;;;;;;4999285;28;20050;-60
2023/07/12 01:33:35;;;;;;;5.03;2.70;;;;;;;;;;4997043;28;20128;-62
2023/07/12 01:36:01;;;;;;;4.38;2.30;;;;;;;;;;4992119;28;20049;-61
2023/07/12 01:38:28;;;;;;;5.68;2.90;;;;;;;;;;4998392;28;20045;-63
2023/07/12 01:40:54;;;;;;;5.30;2.83;;;;;;;;;;5000060;28;20041;-61
2023/07/12 01:43:21;;;;;;;4.88;2.75;;;;;;;;;;5001467;28;20502;-61
2023/07/12 01:45:48;;;;;;;6.53;3.03;;;;;;;;;;4998897;28;20041;-62
2023/07/12 01:48:14;;;;;;;6.20;2.70;;;;;;;;;;4997199;28;20033;-62
2023/07/12 01:50:41;;;;;;;5.75;2.30;;;;;;;;;;4998921;28;20489;-63
2023/07/12 01:53:09;;;;;;;4.47;2.45;;;;;;;;;;4997516;28;20041;-61
2023/07/12 01:55:35;;;;;;;5.00;2.55;;;;;;;;;;4999117;28;20533;-60
2023/07/12 01:58:02;;;;;;;6.28;2.72;;;;;;;;;;4998613;28;20117;-61
2023/07/12 02:00:28;;;;;;;4.95;2.67;;;;;;;;;;4999015;28;20045;-60
2023/07/12 02:02:55;;;;;;;6.20;2.80;;;;;;;;;;4998223;28;20085;-60
2023/07/12 02:05:22;;;;;;;5.03;2.63;;;;;;;;;;4999959;28;20046;-61
2023/07/12 02:07:49;;;;;;;4.80;2.42;;;;;;;;;;4999364;28;20033;-62
2023/07/12 02:10:16;;;;;;;5.68;2.63;;;;;;;;;;4998243;28;20065;-60
2023/07/12 02:12:43;;;;;;;7.10;2.78;;;;;;;;;;4999721;28;20089;-63
2023/07/12 02:15:11;;;;;;;5.05;2.80;;;;;;;;;;4999004;28;20683;-62
2023/07/12 02:17:38;;;;;;;7.10;3.03;;;;;;;;;;4997776;28;20184;-60
2023/07/12 02:20:05;;;;;;;6.28;3.10;;;;;;;;;;4997951;28;20081;-62
2023/07/12 02:22:33;;;;;;;5.85;3.15;;;;;;;;;;4997196;28;20044;-66
2023/07/12 02:24:59;;;;;;;4.85;2.72;;;;;;;;;;4997126;28;20053;-65
2023/07/12 02:27:26;;;;;;;5.75;2.78;;;;;;;;;;4996956;28;20046;-62
2023/07/12 02:29:53;;;;;;;6.57;2.78;;;;;;;;;;4988841;28;20065;-63
2023/07/12 02:32:22;;;;;;;5.07;2.95;;;;;;;;;;4996776;28;20057;-63
2023/07/12 02:34:49;;;;;;;5.20;2.53;;;;;;;;;;4995431;28;20064;-64
2023/07/12 02:37:17;;;;;;;5.40;2.80;;;;;;;;;;4998249;28;20465;-60
2023/07/12 02:39:44;;;;;;;7.60;3.13;;;;;;;;;;4996336;28;20648;-62
2023/07/12 02:42:11;;;;;;;5.28;3.08;;;;;;;;;;4997229;28;20046;-61
2023/07/12 02:44:41;;;;;;;6.30;3.08;;;;;;;;;;4996578;28;20434;-62
2023/07/12 02:47:09;;;;;;;6.63;3.30;;;;;;;;;;4996430;28;20120;-62
2023/07/12 02:49:37;;;;;;;5.25;2.70;;;;;;;;;;4995365;28;20815;-63
2023/07/12 02:52:04;;;;;;;6.57;3.30;;;;;;;;;;4994221;28;20038;-63
2023/07/12 02:54:34;;;;;;;5.20;2.78;;;;;;;;;;4994968;28;20400;-61
2023/07/12 02:57:01;;;;;;;6.03;3.38;;;;;;;;;;4997294;28;20046;-63
2023/07/12 02:59:28;;;;;;;6.28;3.47;;;;;;;;;;4996295;28;20102;-63
2023/07/12 03:01:54;;;;;;;6.47;3.88;;;;;;;;;;4995576;28;20080;-62
2023/07/12 03:04:22;;;;;;;6.22;3.58;;;;;;;;;;4995673;28;20033;-63
2023/07/12 03:06:49;;;;;;;6.65;4.07;;;;;;;;;;5000507;28;20044;-61
2023/07/12 03:09:15;;;;;;;6.15;3.45;;;;;;;;;;4999352;28;20037;-61
2023/07/12 03:11:44;;;;;;;8.38;4.15;;;;;;;;;;5000611;28;20072;-60
2023/07/12 03:14:11;;;;;;;6.15;3.60;;;;;;;;;;4999463;28;20038;-62
2023/07/12 03:16:38;;;;;;;6.13;3.60;;;;;;;;;;5001150;28;20045;-60
2023/07/12 03:19:04;;;;;;;8.23;3.92;;;;;;;;;;4998529;28;20049;-63
2023/07/12 03:21:31;;;;;;;6.65;3.83;;;;;;;;;;5001735;28;20037;-63
2023/07/12 03:23:57;;;;;;;6.47;3.92;;;;;;;;;;5004693;28;20044;-60
2023/07/12 03:26:24;;;;;;;6.75;3.88;;;;;;;;;;5011076;28;20279;-60
2023/07/12 03:28:51;;;;;;;8.27;4.07;;;;;;;;;;5006179;28;20070;-63
2023/07/12 03:31:18;;;;;;;6.93;4.22;;;;;;;;;;5010931;28;20049;-62
2023/07/12 03:33:47;;;;;;;6.63;3.85;;;;;;;;;;5005435;28;20628;-62
2023/07/12 03:36:15;;;;;;;8.25;4.45;;;;;;;;;;4999125;28;20092;-62
2023/07/12 03:38:42;;;;;;;8.60;4.53;;;;;;;;;;4995570;28;20096;-62
2023/07/12 03:41:11;;;;;;;6.93;4.20;;;;;;;;;;4997994;28;20124;-61
2023/07/12 03:43:38;;;;;;;6.75;4.35;;;;;;;;;;4993742;28;20411;-61
2023/07/12 03:46:05;;;;;;;8.18;4.53;;;;;;;;;;4997762;28;20053;-63
2023/07/12 03:48:31;;;;;;;8.80;5.15;;;;;;;;;;5012934;28;20077;-63
2023/07/12 03:50:58;;;;;;;8.82;4.82;;;;;;;;;;4997149;28;20148;-60
2023/07/12 03:53:26;;;;;;;10.55;5.38;;;;;;;;;;4996192;28;20042;-61
2023/07/12 03:55:53;;;;;;;8.23;4.82;;;;;;;;;;4995732;28;20407;-60
2023/07/12 03:58:21;;;;;;;7.72;4.70;;;;;;;;;;4996941;28;20057;-62
2023/07/12 04:00:49;;;;;;;8.48;4.82;;;;;;;;;;4996374;28;20088;-62
2023/07/12 04:03:16;;;;;;;9.40;4.75;;;;;;;;;;5026660;28;20034;-62
2023/07/12 04:05:43;;;;;;;6.35;4.15;;;;;;;;;;4997514;28;20053;-61
2023/07/12 04:08:11;;;;;;;6.68;4.28;;;;;;;;;;4997097;28;20133;-63
2023/07/12 04:10:38;;;;;;;8.60;5.07;;;;;;;;;;4996658;28;20123;-64
2023/07/12 04:13:05;;;;;;;7.55;4.43;;;;;;;;;;4995698;28;20698;-63
2023/07/12 04:15:32;;;;;;;8.15;4.38;;;;;;;;;;4995156;28;20507;-62
2023/07/12 04:17:58;;;;;;;7.65;4.63;;;;;;;;;;4995131;28;20089;-62
2023/07/12 04:20:25;;;;;;;11.52;6.10;;;;;;;;;;4995386;28;20202;-65
2023/07/12 04:22:52;;;;;;;10.63;5.25;;;;;;;;;;4995995;28;20045;-64
2023/07/12 04:25:19;;;;;;;8.32;5.25;;;;;;;;;;4995193;28;20445;-63
2023/07/12 04:27:46;;;;;;;9.43;5.80;;;;;;;;;;4997652;28;20042;-62
2023/07/12 04:30:13;;;;;;;9.40;5.78;;;;;;;;;;4997723;28;20042;-61
2023/07/12 04:32:41;;;;;;;10.35;5.50;;;;;;;;;;4995659;28;20076;-62
2023/07/12 04:35:07;;;;;;;10.38;6.03;;;;;;;;;;4996516;28;20046;-62
2023/07/12 04:37:35;;;;;;;9.07;5.13;;;;;;;;;;4996923;28;20054;-64
2023/07/12 04:40:01;;;;;;;9.30;5.68;;;;;;;;;;4999224;28;20483;-61
2023/07/12 04:42:28;;;;;;;9.00;5.32;;;;;;;;;;5013897;28;20459;-62
2023/07/12 04:44:55;;;;;;;8.77;5.00;;;;;;;;;;4999263;28;20066;-62
2023/07/12 04:47:21;;;;;;;9.30;4.90;;;;;;;;;;5001108;28;20114;-62
2023/07/12 04:49:48;;;;;;;7.55;4.90;;;;;;;;;;5000126;28;20049;-61
2023/07/12 04:52:15;;;;;;;10.27;5.70;;;;;;;;;;4998383;28;20033;-63
2023/07/12 04:54:43;;;;;;;10.18;5.22;;;;;;;;;;4999996;28;20133;-61
2023/07/12 04:57:10;;;;;;;9.25;5.65;;;;;;;;;;4998700;28;20470;-61
2023/07/12 04:59:36;;;;;;;8.02;5.13;;;;;;;;;;4996629;28;20218;-62
2023/07/12 05:02:04;;;;;;;8.48;5.25;;;;;;;;;;4995582;28;20289;-64
2023/07/12 05:04:32;;;;;;;7.70;5.05;;;;;;;;;;4998868;28;20038;-61
2023/07/12 05:06:59;;;;;;;8.70;5.28;;;;;;;;;;4997473;28;20046;-63
2023/07/12 05:09:26;;;;;;;9.10;5.43;;;;;;;;;;5000459;28;22069;-62
2023/07/12 05:11:52;;;;;;;7.97;5.30;;;;;;;;;;4999103;28;20045;-61
2023/07/12 05:14:19;;;;;;;7.80;5.20;;;;;;;;;;4999837;28;20026;-61
2023/07/12 05:16:46;;;;;;;10.00;5.30;;;;;;;;;;4998882;28;20686;-63
2023/07/12 05:19:12;;;;;;;8.27;5.45;;;;;;;;;;4997807;28;20060;-64
2023/07/12 05:21:39;;;;;;;9.15;6.40;;;;;;;;;;5014096;28;20037;-61
2023/07/12 05:24:06;;;;;;;10.82;6.13;;;;;;;;;;4998016;28;20187;-63
2023/07/12 05:26:33;;;;;;;8.90;6.32;;;;;;;;;;4998501;28;20053;-64
2023/07/12 05:29:00;;;;;;;10.13;6.90;;;;;;;;;;5015289;28;20045;-61
2023/07/12 05:31:26;;;;;;;11.90;6.75;;;;;;;;;;5004286;28;20104;-62
2023/07/12 05:33:53;;;;;;;11.13;7.85;;;;;;;;;;4996613;28;20146;-63
2023/07/12 05:36:19;;;;;;;16.25;9.13;;;;;;;;;;5001235;28;20510;-61
2023/07/12 05:38:46;;;;;;;14.95;9.40;;;;;;;;;;4999549;28;20052;-61
2023/07/12 05:41:13;;;;;;;14.80;9.27;;;;;;;;;;5000107;28;20044;-63
2023/07/12 05:43:40;;;;;;;14.65;9.38;;;;;;;;;;4997457;28;21049;-60
2023/07/12 05:46:07;;;;;;;14.43;8.25;;;;;;;;;;5000432;28;20045;-61
2023/07/12 05:48:33;;;;;;;12.88;8.50;;;;;;;;;;4999319;28;20038;-61
2023/07/12 05:51:01;;;;;;;16.13;9.30;;;;;;;;;;5000978;28;20841;-60
2023/07/12 05:53:28;;;;;;;12.60;8.18;;;;;;;;;;4999511;28;20034;-63
2023/07/12 05:55:55;;;;;;;11.90;8.60;;;;;;;;;;4999945;28;20060;-62
2023/07/12 05:58:22;;;;;;;14.23;8.90;;;;;;;;;;5000861;28;20065;-61
2023/07/12 06:00:49;;;;;;;12.60;9.00;;;;;;;;;;4987614;28;20048;-64
2023/07/12 06:03:15;;;;;;;13.57;8.60;;;;;;;;;;4999729;28;20073;-60
2023/07/12 06:05:44;;;;;;;14.20;9.25;;;;;;;;;;5015875;28;20563;-60
2023/07/12 06:08:11;;;;;;;19.00;9.88;;;;;;;;;;5000537;28;20038;-63
2023/07/12 06:10:57;;;;;;;21.52;9.85;;;;;;;;;;4998434;28;20483;-66
2023/07/12 06:13:24;;;;;;;14.20;8.75;;;;;;;;;;4999294;28;20066;-62
2023/07/12 06:15:51;;;;;;;15.73;8.85;;;;;;;;;;5001993;28;20048;-62
2023/07/12 06:18:18;;;;;;;13.02;9.07;;;;;;;;;;5000837;28;20407;-61
2023/07/12 06:20:45;;;;;;;18.58;9.20;;;;;;;;;;4998618;28;20053;-60
2023/07/12 06:23:12;;;;;;;15.25;9.38;;;;;;;;;;4983997;28;20053;-62
2023/07/12 06:25:40;;;;;;;15.57;8.95;;;;;;;;;;5000333;28;20042;-63
2023/07/12 06:28:06;;;;;;;15.38;9.13;;;;;;;;;;5000280;28;20045;-62
2023/07/12 06:30:33;;;;;;;14.48;9.52;;;;;;;;;;5001179;28;20049;-63
2023/07/12 06:32:59;;;;;;;16.13;9.35;;;;;;;;;;4999952;28;20322;-64
2023/07/12 06:35:26;;;;;;;14.10;8.95;;;;;;;;;;5001022;28;20688;-62
2023/07/12 06:37:52;;;;;;;15.23;9.13;;;;;;;;;;5001234;28;20047;-63
2023/07/12 06:40:19;;;;;;;16.23;9.63;;;;;;;;;;4999840;28;20080;-62
2023/07/12 06:42:46;;;;;;;14.13;9.05;;;;;;;;;;4999137;28;20052;-63
2023/07/12 06:45:12;;;;;;;13.95;9.60;;;;;;;;;;4999865;28;20081;-62
2023/07/12 06:47:39;;;;;;;15.07;10.40;;;;;;;;;;4999484;28;20033;-63
2023/07/12 06:50:05;;;;;;;15.23;10.73;;;;;;;;;;4999819;28;20045;-61
2023/07/12 06:52:32;;;;;;;16.20;10.82;;;;;;;;;;4996869;28;20061;-63
2023/07/12 06:54:59;;;;;;;15.18;10.48;;;;;;;;;;4998282;28;20129;-64
2023/07/12 06:57:25;;;;;;;15.90;10.15;;;;;;;;;;4997974;28;20050;-62
2023/07/12 06:59:52;;;;;;;13.80;9.38;;;;;;;;;;4998995;28;20046;-61
2023/07/12 07:02:19;;;;;;;15.05;9.25;;;;;;;;;;4997709;28;20034;-64
2023/07/12 07:04:46;;;;;;;17.75;9.32;;;;;;;;;;4996500;28;20530;-61
2023/07/12 07:07:12;;;;;;;15.55;8.88;;;;;;;;;;4997259;28;20125;-62
2023/07/12 07:09:39;;;;;;;15.77;9.52;;;;;;;;;;4996993;28;20490;-63
2023/07/12 07:12:07;;;;;;;13.95;9.20;;;;;;;;;;4988109;28;20037;-62
2023/07/12 07:14:33;;;;;;;13.88;8.88;;;;;;;;;;4997090;28;20494;-63
2023/07/12 07:17:00;;;;;;;15.63;8.65;;;;;;;;;;4998056;28;20085;-64
2023/07/12 07:19:27;;;;;;;16.08;8.75;;;;;;;;;;4996960;28;20507;-64
2023/07/12 07:21:54;;;;;;;12.50;8.80;;;;;;;;;;4997005;28;20056;-62
2023/07/12 07:24:20;;;;;;;14.45;9.15;;;;;;;;;;4998215;28;20034;-64
2023/07/12 07:26:47;;;;;;;15.88;9.88;;;;;;;;;;4997231;28;20127;-63
2023/07/12 07:29:13;;;;;;;14.73;9.57;;;;;;;;;;5012169;28;20038;-62
2023/07/12 07:31:40;;;;;;;16.20;9.93;;;;;;;;;;4996025;28;20212;-64
2023/07/12 07:34:06;;;;;;;14.82;9.70;;;;;;;;;;4997468;28;20049;-61
2023/07/12 07:36:33;;;;;;;14.57;9.75;;;;;;;;;;4995492;28;20038;-62
2023/07/12 07:39:00;;;;;;;15.45;10.00;;;;;;;;;;4996239;28;20092;-64
2023/07/12 07:41:27;;;;;;;15.73;10.07;;;;;;;;;;4996508;28;20034;-63
2023/07/12 07:43:54;;;;;;;17.63;9.93;;;;;;;;;;4997769;28;20053;-62
2023/07/12 07:46:22;;;;;;;15.43;9.90;;;;;;;;;;4998262;28;20042;-63
2023/07/12 07:48:49;;;;;;;18.67;10.45;;;;;;;;;;4995650;28;20076;-63
2023/07/12 07:51:16;;;;;;;17.50;10.40;;;;;;;;;;4997229;28;20061;-62
2023/07/12 07:53:43;;;;;;;16.00;9.50;;;;;;;;;;4995348;28;20403;-62
2023/07/12 07:56:10;;;;;;;16.85;9.65;;;;;;;;;;5015817;28;20124;-62
2023/07/12 07:58:37;;;;;;;15.18;9.30;;;;;;;;;;4995661;28;20243;-62
2023/07/12 08:01:04;;;;;;;15.85;10.15;;;;;;;;;;4997240;28;20042;-63
2023/07/12 08:03:31;;;;;;;15.95;9.98;;;;;;;;;;4995223;28;20246;-61
2023/07/12 08:06:02;;;;;;;17.63;10.35;;;;;;;;;;4996197;28;21740;-59
2023/07/12 08:08:29;;;;;;;18.48;10.13;;;;;;;;;;4996534;28;20119;-61
2023/07/12 08:10:57;;;;;;;14.88;10.10;;;;;;;;;;4991195;28;20441;-62
2023/07/12 08:13:24;;;;;;;17.48;10.82;;;;;;;;;;4995398;28;20084;-63
2023/07/12 08:15:51;;;;;;;19.45;11.10;;;;;;;;;;4996977;28;20049;-63
2023/07/12 08:18:17;;;;;;;16.75;10.93;;;;;;;;;;4996674;28;20056;-61
2023/07/12 08:20:44;;;;;;;17.80;11.35;;;;;;;;;;4995068;28;20073;-62
2023/07/12 08:23:10;;;;;;;16.00;11.23;;;;;;;;;;4996668;28;20053;-62
2023/07/12 08:25:37;;;;;;;17.27;10.85;;;;;;;;;;4995305;28;20145;-63
2023/07/12 08:28:03;;;;;;;18.23;11.68;;;;;;;;;;4996352;28;20111;-64
2023/07/12 08:30:30;;;;;;;20.35;12.65;;;;;;;;;;4995352;28;20070;-62
2023/07/12 08:32:57;;;;;;;21.85;12.57;;;;;;;;;;4995578;28;20085;-64
2023/07/12 08:35:23;;;;;;;20.00;12.55;;;;;;;;;;4995074;28;20038;-62
2023/07/12 08:37:50;;;;;;;17.42;11.55;;;;;;;;;;4995482;28;20049;-61
2023/07/12 08:40:16;;;;;;;18.45;11.25;;;;;;;;;;4995934;28;20592;-62
2023/07/12 08:42:44;;;;;;;19.95;11.27;;;;;;;;;;4995582;28;20054;-64
2023/07/12 08:45:21;;;;;;;22.98;11.43;;;;;;;;;;4995770;28;20030;-61
2023/07/12 08:47:48;;;;;;;20.15;10.38;;;;;;;;;;4996052;28;20076;-62
2023/07/12 08:50:16;;;;;;;18.35;11.23;;;;;;;;;;4996534;28;20042;-64
2023/07/12 08:52:44;;;;;;;20.00;11.05;;;;;;;;;;4995857;28;20175;-64
2023/07/12 08:55:22;;;;;;;18.20;11.60;;;;;;;;;;4995022;28;20252;-64
2023/07/12 08:58:03;;;;;;;22.85;11.77;;;;;;;;;;4995818;28;20054;-63
2023/07/12 09:00:32;;;;;;;22.50;13.38;;;;;;;;;;4995779;28;20034;-63
2023/07/12 09:02:59;;;;;;;21.50;13.15;;;;;;;;;;4995838;28;20049;-63
2023/07/12 09:05:26;;;;;;;18.83;12.98;;;;;;;;;;4995661;28;20473;-64
2023/07/12 09:08:04;;;;;;;23.23;14.32;;;;;;;;;;4996249;28;20046;-63
2023/07/12 09:10:39;;;;;;;20.58;13.38;;;;;;;;;;4995794;28;20108;-65
2023/07/12 09:13:07;;;;;;;20.42;13.23;;;;;;;;;;4994922;28;20536;-63
2023/07/12 09:15:37;;;;;;;20.60;13.30;;;;;;;;;;4994176;28;20056;-65
2023/07/12 09:18:08;;;;;;;19.80;13.45;;;;;;;;;;4995773;28;20097;-63
2023/07/12 09:20:38;;;;;;;21.42;13.43;;;;;;;;;;4993915;28;20048;-65
2023/07/12 09:23:07;;;;;;;21.75;14.20;;;;;;;;;;4995672;28;20156;-65
2023/07/12 09:25:38;;;;;;;21.80;14.00;;;;;;;;;;5000682;28;20030;-63
2023/07/12 09:28:12;;;;;;;22.13;14.05;;;;;;;;;;4999493;28;20069;-63
2023/07/12 09:30:38;;;;;;;23.17;14.32;;;;;;;;;;4999157;28;20037;-64
2023/07/12 09:33:05;;;;;;;22.90;14.45;;;;;;;;;;4990628;28;20084;-65
2023/07/12 09:35:45;;;;;;;23.55;14.77;;;;;;;;;;4997968;28;20030;-64
2023/07/12 09:38:14;;;;;;;24.27;14.73;;;;;;;;;;4999359;28;20477;-64
2023/07/12 09:40:42;;;;;;;27.10;14.95;;;;;;;;;;4998870;28;20033;-62
2023/07/12 09:43:25;;;;;;;23.30;14.88;;;;;;;;;;4998798;28;20042;-62
2023/07/12 09:46:10;;;;;;;24.23;14.88;;;;;;;;;;4998278;28;20115;-61
2023/07/12 09:48:42;;;;;;;24.27;14.40;;;;;;;;;;4998467;28;20049;-64
2023/07/12 09:51:09;;;;;;;27.38;15.27;;;;;;;;;;4998896;28;20386;-62
2023/07/12 09:53:35;;;;;;;24.20;14.88;;;;;;;;;;4994242;28;20045;-64
2023/07/12 09:56:13;;;;;;;25.15;15.77;;;;;;;;;;4997926;28;20092;-63
2023/07/12 09:58:44;;;;;;;22.40;14.45;;;;;;;;;;4998230;28;20048;-61
2023/07/12 10:01:31;;;;;;;21.85;14.50;;;;;;;;;;4998720;28;20046;-61
2023/07/12 10:04:02;;;;;;;23.95;15.07;;;;;;;;;;4999242;28;20045;-63
2023/07/12 10:06:44;;;;;;;27.15;15.02;;;;;;;;;;4999413;28;20095;-63
2023/07/12 10:09:31;;;;;;;22.42;13.77;;;;;;;;;;5003443;28;21583;-64
2023/07/12 10:12:06;;;;;;;20.35;13.57;;;;;;;;;;5001260;28;20141;-65
2023/07/12 10:14:38;;;;;;;23.27;14.60;;;;;;;;;;4998378;28;20037;-63
2023/07/12 10:17:39;;;;;;;24.27;14.32;;;;;;;;;;4995198;28;20925;-67
2023/07/12 10:20:06;;;;;;;22.08;13.18;;;;;;;;;;4998612;28;20049;-64
2023/07/12 10:22:38;;;;;;;22.08;14.13;;;;;;;;;;4998476;28;20075;-65
2023/07/12 10:25:31;;;;;;;23.83;13.67;;;;;;;;;;4996860;28;20088;-64
2023/07/12 10:28:13;;;;;;;21.83;12.38;;;;;;;;;;4996625;28;20045;-64
2023/07/12 10:30:40;;;;;;;20.77;12.80;;;;;;;;;;4997859;28;20046;-64
2023/07/12 10:33:07;;;;;;;18.20;12.25;;;;;;;;;;4995771;28;20062;-64
2023/07/12 10:35:41;;;;;;;21.10;12.60;;;;;;;;;;4995544;28;20038;-67
2023/07/12 10:38:12;;;;;;;19.95;11.98;;;;;;;;;;4996223;28;20064;-62
2023/07/12 10:40:41;;;;;;;17.67;10.63;;;;;;;;;;4995330;28;20049;-64
2023/07/12 10:43:13;;;;;;;18.20;10.30;;;;;;;;;;5013274;28;20975;-63
2023/07/12 10:45:40;;;;;;;17.92;9.77;;;;;;;;;;4993828;28;20038;-64
2023/07/12 10:48:08;;;;;;;16.27;9.50;;;;;;;;;;4995611;28;20069;-63
2023/07/12 10:50:34;;;;;;;17.80;9.85;;;;;;;;;;4996308;28;20068;-67
2023/07/12 10:53:11;;;;;;;14.50;9.20;;;;;;;;;;5011608;28;20045;-63
2023/07/12 10:55:40;;;;;;;13.88;8.88;;;;;;;;;;5011083;28;20042;-64
2023/07/12 10:58:15;;;;;;;14.45;8.63;;;;;;;;;;4991542;28;20057;-63
2023/07/12 11:00:51;;;;;;;13.25;8.70;;;;;;;;;;4992090;28;20140;-64
2023/07/12 11:03:22;;;;;;;16.48;9.20;;;;;;;;;;5001732;28;20510;-64
2023/07/12 11:05:59;;;;;;;17.17;9.43;;;;;;;;;;4996320;28;20038;-64
2023/07/12 11:08:32;;;;;;;18.45;9.32;;;;;;;;;;4996602;28;20053;-63
2023/07/12 11:11:21;;;;;;;14.98;9.48;;;;;;;;;;4997458;28;20052;-64
2023/07/12 11:13:53;;;;;;;17.83;9.10;;;;;;;;;;4968317;28;20505;-64
2023/07/12 11:16:21;;;;;;;17.13;9.32;;;;;;;;;;4995092;28;20038;-64
2023/07/12 11:18:52;;;;;;;17.10;9.73;;;;;;;;;;4996128;28;20139;-65
2023/07/12 11:21:45;;;;;;;17.50;9.75;;;;;;;;;;4987825;28;20038;-64
2023/07/12 11:24:22;;;;;;;16.77;9.90;;;;;;;;;;4997285;28;20058;-62
2023/07/12 11:26:54;;;;;;;18.27;9.88;;;;;;;;;;4997021;28;20379;-64
2023/07/12 11:29:34;;;;;;;17.95;9.93;;;;;;;;;;4997144;28;20066;-64
2023/07/12 11:32:04;;;;;;;16.63;10.23;;;;;;;;;;4986926;28;20034;-66
2023/07/12 11:34:30;;;;;;;15.95;10.40;;;;;;;;;;5015058;28;20037;-65
2023/07/12 11:37:00;;;;;;;15.68;9.68;;;;;;;;;;5009216;28;20052;-64
2023/07/12 11:39:28;;;;;;;17.08;10.43;;;;;;;;;;4988313;28;20060;-64
2023/07/12 11:41:55;;;;;;;18.38;10.18;;;;;;;;;;4996606;28;20050;-64
2023/07/12 11:44:42;;;;;;;19.50;9.82;;;;;;;;;;4979670;28;20041;-65
2023/07/12 11:47:10;;;;;;;16.70;10.00;;;;;;;;;;4979573;28;20053;-63
2023/07/12 11:49:40;;;;;;;15.10;9.20;;;;;;;;;;4979544;28;20236;-62
2023/07/12 11:52:15;;;;;;;17.35;10.63;;;;;;;;;;4980972;28;20160;-64
2023/07/12 11:54:42;;;;;;;18.65;10.55;;;;;;;;;;4979664;28;20270;-64
2023/07/12 11:57:15;;;;;;;18.63;10.10;;;;;;;;;;4979657;28;20133;-63
2023/07/12 11:59:44;;;;;;;17.33;9.70;;;;;;;;;;4978711;28;20517;-63
2023/07/12 12:02:21;;;;;;;15.30;9.60;;;;;;;;;;4962381;28;20077;-65
2023/07/12 12:04:50;;;;;;;14.70;9.50;;;;;;;;;;4976107;28;20049;-64
2023/07/12 12:07:23;;;;;;;17.45;10.40;;;;;;;;;;4978878;28;20042;-64
2023/07/12 12:10:20;;;;;;;16.27;10.07;;;;;;;;;;4956648;28;20851;-65
2023/07/12 12:12:47;;;;;;;16.27;10.15;;;;;;;;;;4958291;28;20038;-64
2023/07/12 12:15:21;;;;;;;16.80;11.10;;;;;;;;;;4968799;28;20125;-64
2023/07/12 12:17:49;;;;;;;16.45;10.48;;;;;;;;;;4990869;28;20059;-64
2023/07/12 12:20:18;;;;;;;15.68;9.80;;;;;;;;;;4989769;28;20046;-64
2023/07/12 12:22:56;;;;;;;18.90;10.32;;;;;;;;;;4991490;28;20034;-67
2023/07/12 12:25:24;;;;;;;16.40;10.60;;;;;;;;;;4974760;28;20120;-63
2023/07/12 12:27:51;;;;;;;16.63;10.13;;;;;;;;;;4991232;28;20045;-64
2023/07/12 12:30:20;;;;;;;16.73;10.40;;;;;;;;;;4991269;28;20126;-63
2023/07/12 12:32:56;;;;;;;16.67;10.02;;;;;;;;;;4990474;28;20065;-64
2023/07/12 12:35:23;;;;;;;17.50;9.73;;;;;;;;;;4990540;28;20072;-66
2023/07/12 12:38:00;;;;;;;15.05;9.73;;;;;;;;;;4992213;28;20474;-63
2023/07/12 12:40:27;;;;;;;18.38;9.77;;;;;;;;;;4974648;28;20072;-62
2023/07/12 12:43:01;;;;;;;20.25;9.73;;;;;;;;;;4998928;28;20037;-63
2023/07/12 12:45:29;;;;;;;16.38;9.35;;;;;;;;;;4989524;28;20056;-63
2023/07/12 12:47:56;;;;;;;14.93;8.70;;;;;;;;;;4986037;28;20050;-64
2023/07/12 12:50:23;;;;;;;16.95;8.93;;;;;;;;;;5001504;28;20033;-65
2023/07/12 12:52:50;;;;;;;13.32;8.32;;;;;;;;;;5009749;28;20046;-62
2023/07/12 12:55:16;;;;;;;16.23;8.75;;;;;;;;;;4995081;28;20046;-64
2023/07/12 12:57:43;;;;;;;16.23;9.13;;;;;;;;;;4994655;28;20475;-62
2023/07/12 13:00:30;;;;;;;15.63;9.02;;;;;;;;;;5013152;28;20065;-63
2023/07/12 13:02:57;;;;;;;16.38;9.30;;;;;;;;;;5000962;28;20069;-63
2023/07/12 13:05:23;;;;;;;13.82;8.40;;;;;;;;;;5015265;28;20432;-65
2023/07/12 13:07:51;;;;;;;15.32;8.20;;;;;;;;;;5014868;28;20068;-63
2023/07/12 13:10:22;;;;;;;15.95;8.55;;;;;;;;;;4997898;28;20117;-65
2023/07/12 13:12:49;;;;;;;15.23;8.98;;;;;;;;;;5014980;28;20041;-66
2023/07/12 13:15:16;;;;;;;14.30;8.70;;;;;;;;;;5012732;28;20056;-65
2023/07/12 13:17:44;;;;;;;14.00;8.15;;;;;;;;;;5014868;28;20513;-64
2023/07/12 13:20:11;;;;;;;14.60;8.70;;;;;;;;;;5030062;28;20105;-63
2023/07/12 13:22:38;;;;;;;15.00;8.15;;;;;;;;;;5012848;28;20115;-66
2023/07/12 13:25:05;;;;;;;15.48;8.00;;;;;;;;;;5018855;28;20574;-65
2023/07/12 13:27:36;;;;;;;15.48;9.00;;;;;;;;;;5010107;28;20073;-62
2023/07/12 13:30:04;;;;;;;15.90;8.35;;;;;;;;;;5015590;28;20049;-65
2023/07/12 13:32:30;;;;;;;14.07;8.05;;;;;;;;;;5013611;28;20034;-64
2023/07/12 13:34:57;;;;;;;13.82;8.52;;;;;;;;;;5014672;28;20626;-63
2023/07/12 13:37:27;;;;;;;13.80;8.07;;;;;;;;;;5012910;28;20053;-64
2023/07/12 13:39:55;;;;;;;18.52;9.45;;;;;;;;;;4998533;28;20520;-62
2023/07/12 13:42:21;;;;;;;13.93;8.88;;;;;;;;;;4998670;28;20052;-62
2023/07/12 13:44:48;;;;;;;17.33;8.45;;;;;;;;;;4996452;28;20045;-64
2023/07/12 13:47:16;;;;;;;15.55;9.10;;;;;;;;;;4997657;28;20383;-63
2023/07/12 13:49:44;;;;;;;17.70;9.48;;;;;;;;;;4996556;28;20604;-63
2023/07/12 13:52:21;;;;;;;18.05;9.00;;;;;;;;;;4997039;28;20050;-65
2023/07/12 13:54:48;;;;;;;15.70;8.07;;;;;;;;;;4995258;28;20407;-63
2023/07/12 13:57:20;;;;;;;15.35;8.68;;;;;;;;;;4996452;28;20412;-64
2023/07/12 13:59:46;;;;;;;13.45;8.60;;;;;;;;;;4988301;28;20516;-61
2023/07/12 14:02:22;;;;;;;16.02;8.63;;;;;;;;;;4997218;28;20029;-64
2023/07/12 14:04:55;;;;;;;16.33;8.85;;;;;;;;;;4997548;28;20516;-65
2023/07/12 14:07:24;;;;;;;14.20;8.27;;;;;;;;;;4997233;28;20042;-62
2023/07/12 14:09:51;;;;;;;13.50;7.72;;;;;;;;;;4997580;28;20487;-62
2023/07/12 14:12:20;;;;;;;14.85;8.07;;;;;;;;;;4999403;28;20399;-62
2023/07/12 14:14:47;;;;;;;11.88;7.43;;;;;;;;;;4995680;28;20105;-62
2023/07/12 14:17:15;;;;;;;15.80;8.35;;;;;;;;;;5017038;28;20060;-65
2023/07/12 14:19:43;;;;;;;12.57;7.60;;;;;;;;;;4997017;28;20046;-62
2023/07/12 14:22:16;;;;;;;12.82;7.60;;;;;;;;;;4999597;28;20060;-62
2023/07/12 14:24:43;;;;;;;13.60;8.20;;;;;;;;;;4998087;28;20048;-62
2023/07/12 14:27:20;;;;;;;11.35;7.10;;;;;;;;;;4997572;28;20172;-64
2023/07/12 14:29:47;;;;;;;12.88;7.20;;;;;;;;;;4996634;28;20057;-63
2023/07/12 14:32:18;;;;;;;14.38;7.30;;;;;;;;;;4998178;28;20041;-61
2023/07/12 14:34:45;;;;;;;12.27;6.80;;;;;;;;;;4997061;28;20037;-62
2023/07/12 14:37:15;;;;;;;13.32;7.18;;;;;;;;;;4991448;28;20041;-63
2023/07/12 14:39:42;;;;;;;13.68;7.00;;;;;;;;;;4995414;28;20545;-63
2023/07/12 14:42:16;;;;;;;13.60;7.22;;;;;;;;;;4998414;28;20128;-61